Terminal Aerodrome Forecast
Issued by NWS

Home | Current Version | Previous Version | Graphics & Text | Print | Product List | Glossary On
Versions: 1 2 3 4 5 6 7 8 9 10 11 12 13 14 15 16 17 18 19 20 21 22 23 24 25 26 27 28
000
FTUS45 KGGW 160520
TAFGDV
TAF
KGDV 160520Z 1606/1706 21006KT P6SM FEW250
     FM161500 24010KT P6SM FEW190
     FM161800 28014G23KT P6SM FEW160
     FM170000 27010KT P6SM FEW220
     FM170500 23006KT P6SM SKC=

USA.gov is the U.S. government's official web portal to all federal, state and local government web resources and services.